sensor_id;sensor_type;location;lat;lon;timestamp;P1;durP1;ratioP1;P2;durP2;ratioP2
81211;SDS011;70686;52.494;13.420;2023-07-02T18:42:35;14.68;;;5.25;;
81211;SDS011;70686;52.494;13.420;2023-07-02T18:53:20;15.67;;;5.40;;
81211;SDS011;70686;52.494;13.420;2023-07-02T18:55:53;17.90;;;5.00;;
81211;SDS011;70686;52.494;13.420;2023-07-02T18:58:23;10.77;;;5.10;;
81211;SDS011;70686;52.494;13.420;2023-07-02T19:00:49;12.00;;;5.10;;
81211;SDS011;70686;52.494;13.420;2023-07-02T19:05:40;11.50;;;4.95;;
81211;SDS011;70686;52.494;13.420;2023-07-02T19:08:06;7.80;;;4.68;;
81211;SDS011;70686;52.494;13.420;2023-07-02T19:12:57;10.63;;;4.93;;
81211;SDS011;70686;52.494;13.420;2023-07-02T19:15:24;9.68;;;5.10;;
81211;SDS011;70686;52.494;13.420;2023-07-02T19:17:50;9.73;;;4.60;;
81211;SDS011;70686;52.494;13.420;2023-07-02T19:22:43;8.85;;;4.97;;
81211;SDS011;70686;52.494;13.420;2023-07-02T19:27:35;10.85;;;5.05;;
81211;SDS011;70686;52.494;13.420;2023-07-02T19:30:02;12.52;;;5.05;;
81211;SDS011;70686;52.494;13.420;2023-07-02T19:32:29;13.40;;;5.68;;
81211;SDS011;70686;52.494;13.420;2023-07-02T19:35:01;8.77;;;5.30;;
81211;SDS011;70686;52.494;13.420;2023-07-02T19:37:28;7.80;;;4.35;;
81211;SDS011;70686;52.494;13.420;2023-07-02T19:42:20;8.75;;;4.72;;
81211;SDS011;70686;52.494;13.420;2023-07-02T19:49:39;11.63;;;4.88;;
81211;SDS011;70686;52.494;13.420;2023-07-02T19:52:08;6.72;;;4.13;;
81211;SDS011;70686;52.494;13.420;2023-07-02T19:54:35;9.85;;;4.60;;
81211;SDS011;70686;52.494;13.420;2023-07-02T19:57:02;10.48;;;4.45;;
81211;SDS011;70686;52.494;13.420;2023-07-02T20:01:53;8.68;;;5.00;;
81211;SDS011;70686;52.494;13.420;2023-07-02T20:06:45;12.50;;;5.05;;
81211;SDS011;70686;52.494;13.420;2023-07-02T20:09:11;8.98;;;5.40;;
81211;SDS011;70686;52.494;13.420;2023-07-02T20:14:03;8.05;;;4.70;;
81211;SDS011;70686;52.494;13.420;2023-07-02T20:23:45;14.00;;;4.88;;
81211;SDS011;70686;52.494;13.420;2023-07-02T20:28:40;18.95;;;6.00;;
81211;SDS011;70686;52.494;13.420;2023-07-02T20:33:31;15.27;;;5.10;;
81211;SDS011;70686;52.494;13.420;2023-07-02T20:38:22;9.77;;;5.35;;
81211;SDS011;70686;52.494;13.420;2023-07-02T20:40:56;10.52;;;5.82;;
81211;SDS011;70686;52.494;13.420;2023-07-02T20:43:29;9.88;;;5.38;;
81211;SDS011;70686;52.494;13.420;2023-07-02T20:45:55;9.93;;;5.53;;
81211;SDS011;70686;52.494;13.420;2023-07-02T20:48:23;11.98;;;5.65;;
81211;SDS011;70686;52.494;13.420;2023-07-02T20:50:52;9.55;;;5.53;;
81211;SDS011;70686;52.494;13.420;2023-07-02T20:58:17;13.82;;;5.38;;
81211;SDS011;70686;52.494;13.420;2023-07-02T21:03:08;10.18;;;6.00;;
81211;SDS011;70686;52.494;13.420;2023-07-02T21:05:35;9.30;;;5.93;;
81211;SDS011;70686;52.494;13.420;2023-07-02T21:08:01;17.67;;;6.15;;
81211;SDS011;70686;52.494;13.420;2023-07-02T21:15:18;10.13;;;5.13;;
81211;SDS011;70686;52.494;13.420;2023-07-02T21:20:12;10.80;;;5.63;;
81211;SDS011;70686;52.494;13.420;2023-07-02T21:22:38;10.05;;;5.10;;
81211;SDS011;70686;52.494;13.420;2023-07-02T21:25:03;9.07;;;4.35;;
81211;SDS011;70686;52.494;13.420;2023-07-02T21:29:55;9.20;;;4.38;;
81211;SDS011;70686;52.494;13.420;2023-07-02T21:34:46;9.80;;;4.80;;
81211;SDS011;70686;52.494;13.420;2023-07-02T21:37:12;10.10;;;4.63;;
81211;SDS011;70686;52.494;13.420;2023-07-02T21:39:38;10.65;;;4.80;;
81211;SDS011;70686;52.494;13.420;2023-07-02T21:42:03;7.05;;;4.30;;
81211;SDS011;70686;52.494;13.420;2023-07-02T21:44:29;6.13;;;4.25;;
81211;SDS011;70686;52.494;13.420;2023-07-02T21:46:54;10.60;;;4.43;;
81211;SDS011;70686;52.494;13.420;2023-07-02T21:49:20;11.23;;;4.22;;
81211;SDS011;70686;52.494;13.420;2023-07-02T21:54:11;8.88;;;4.60;;
81211;SDS011;70686;52.494;13.420;2023-07-02T21:59:02;8.65;;;4.47;;
81211;SDS011;70686;52.494;13.420;2023-07-02T22:01:27;6.53;;;4.15;;
81211;SDS011;70686;52.494;13.420;2023-07-02T22:08:44;7.45;;;3.85;;
81211;SDS011;70686;52.494;13.420;2023-07-02T22:11:13;15.60;;;4.38;;
81211;SDS011;70686;52.494;13.420;2023-07-02T22:13:39;8.23;;;4.53;;
81211;SDS011;70686;52.494;13.420;2023-07-02T22:18:31;8.85;;;4.40;;
81211;SDS011;70686;52.494;13.420;2023-07-02T22:21:01;8.15;;;4.10;;
81211;SDS011;70686;52.494;13.420;2023-07-02T22:23:31;7.95;;;4.72;;
81211;SDS011;70686;52.494;13.420;2023-07-02T22:25:57;9.80;;;4.22;;
81211;SDS011;70686;52.494;13.420;2023-07-02T22:30:49;9.38;;;4.65;;
81211;SDS011;70686;52.494;13.420;2023-07-02T22:33:14;12.27;;;4.43;;
81211;SDS011;70686;52.494;13.420;2023-07-02T22:40:31;11.07;;;4.20;;
81211;SDS011;70686;52.494;13.420;2023-07-02T22:45:22;9.90;;;4.63;;
81211;SDS011;70686;52.494;13.420;2023-07-02T22:47:48;8.30;;;3.97;;
81211;SDS011;70686;52.494;13.420;2023-07-02T22:50:14;9.50;;;4.38;;
81211;SDS011;70686;52.494;13.420;2023-07-02T22:52:40;5.10;;;3.80;;
81211;SDS011;70686;52.494;13.420;2023-07-02T22:55:09;8.02;;;4.03;;
81211;SDS011;70686;52.494;13.420;2023-07-02T22:57:36;7.50;;;4.20;;
81211;SDS011;70686;52.494;13.420;2023-07-02T23:00:04;6.13;;;3.90;;
81211;SDS011;70686;52.494;13.420;2023-07-02T23:02:44;8.30;;;4.40;;
81211;SDS011;70686;52.494;13.420;2023-07-02T23:05:13;8.60;;;4.47;;
81211;SDS011;70686;52.494;13.420;2023-07-02T23:07:44;8.73;;;4.20;;
81211;SDS011;70686;52.494;13.420;2023-07-02T23:10:11;6.80;;;3.83;;
81211;SDS011;70686;52.494;13.420;2023-07-02T23:12:41;7.93;;;4.50;;
81211;SDS011;70686;52.494;13.420;2023-07-02T23:15:11;9.20;;;4.50;;
81211;SDS011;70686;52.494;13.420;2023-07-02T23:17:59;9.30;;;4.13;;
81211;SDS011;70686;52.494;13.420;2023-07-02T23:20:24;7.40;;;4.15;;
81211;SDS011;70686;52.494;13.420;2023-07-02T23:22:51;9.05;;;4.35;;
81211;SDS011;70686;52.494;13.420;2023-07-02T23:27:45;9.02;;;4.20;;
81211;SDS011;70686;52.494;13.420;2023-07-02T23:30:14;8.90;;;4.10;;
81211;SDS011;70686;52.494;13.420;2023-07-02T23:32:42;7.03;;;4.35;;
81211;SDS011;70686;52.494;13.420;2023-07-02T23:35:10;7.97;;;4.15;;
81211;SDS011;70686;52.494;13.420;2023-07-02T23:37:37;6.78;;;4.22;;
81211;SDS011;70686;52.494;13.420;2023-07-02T23:40:06;6.57;;;4.28;;
81211;SDS011;70686;52.494;13.420;2023-07-02T23:42:37;10.93;;;4.97;;
81211;SDS011;70686;52.494;13.420;2023-07-02T23:45:04;6.88;;;3.88;;
81211;SDS011;70686;52.494;13.420;2023-07-02T23:47:31;8.85;;;4.63;;
81211;SDS011;70686;52.494;13.420;2023-07-02T23:49:57;9.48;;;4.20;;
81211;SDS011;70686;52.494;13.420;2023-07-02T23:52:23;9.70;;;4.53;;
81211;SDS011;70686;52.494;13.420;2023-07-02T23:54:49;8.57;;;4.15;;
81211;SDS011;70686;52.494;13.420;2023-07-02T23:57:14;7.90;;;4.28;;
81211;SDS011;70686;52.494;13.420;2023-07-02T23:59:40;11.00;;;4.85;;
